Time;durP1;ratioP1;P1;durP2;ratioP2;P2;SDS_P1;SDS_P2;PMS_P1;PMS_P2;Temp;Humidity;BMP_temperature;BMP_pressure;BME280_temperature;BME280_humidity;BME280_pressure;Samples;Min_cycle;Max_cycle;Signal;HPM_P1;HPM_P2
2022/09/10 00:02:00;;;;;;;0.40;0.40;;;15.20;99.90;;;;;;4262763;33;20510;-77
2022/09/10 00:04:26;;;;;;;0.70;0.70;;;15.20;99.90;;;;;;4265740;33;20520;-77
2022/09/10 00:06:54;;;;;;;9.75;1.50;;;15.20;99.90;;;;;;4264926;33;20080;-77
2022/09/10 00:09:19;;;;;;;0.35;0.35;;;15.30;99.90;;;;;;4265587;33;20064;-77
2022/09/10 00:11:45;;;;;;;15.48;0.68;;;15.30;99.90;;;;;;4265514;33;20120;-77
2022/09/10 00:14:16;;;;;;;0.40;0.40;;;15.40;99.90;;;;;;4263135;33;20137;-77
2022/09/10 00:16:41;;;;;;;;;;;15.50;99.90;;;;;;4261721;33;20863;-77
2022/09/10 00:19:07;;;;;;;0.45;0.45;;;15.50;99.90;;;;;;4262987;33;19945;-77
2022/09/10 00:21:33;;;;;;;0.50;0.50;;;15.60;99.90;;;;;;4266309;33;20097;-77
2022/09/10 00:24:00;;;;;;;0.98;0.77;;;15.60;99.90;;;;;;4264224;33;20109;-77
2022/09/10 00:26:29;;;;;;;0.30;0.30;;;15.60;99.90;;;;;;4264303;33;20100;-77
2022/09/10 00:28:57;;;;;;;0.40;0.40;;;15.60;99.90;;;;;;4244483;33;20159;-77
2022/09/10 00:31:23;;;;;;;0.40;0.40;;;15.60;99.90;;;;;;4256168;33;20085;-77
2022/09/10 00:33:50;;;;;;;0.40;0.40;;;15.40;99.90;;;;;;4265459;33;20081;-77
2022/09/10 00:36:18;;;;;;;4.10;1.67;;;15.30;99.90;;;;;;4264436;33;20057;-77
2022/09/10 00:38:44;;;;;;;0.50;0.50;;;15.20;99.90;;;;;;4262331;33;20072;-77
2022/09/10 00:41:10;;;;;;;0.47;0.47;;;15.20;99.90;;;;;;4265827;33;20064;-77
2022/09/10 00:43:56;;;;;;;0.30;0.30;;;15.20;99.90;;;;;;4265744;33;20439;-77
2022/09/10 00:46:32;;;;;;;1.20;0.82;;;15.10;99.90;;;;;;4251753;33;20562;-77
2022/09/10 00:49:01;;;;;;;1.95;0.52;;;15.00;99.90;;;;;;4261400;33;20097;-77
2022/09/10 00:51:29;;;;;;;1.98;0.82;;;15.00;99.90;;;;;;4262380;33;20544;-77
2022/09/10 00:53:55;;;;;;;0.45;0.45;;;15.00;99.90;;;;;;4262970;33;20060;-77
2022/09/10 00:56:21;;;;;;;0.43;0.43;;;15.00;99.90;;;;;;4263709;33;20096;-77
2022/09/10 00:58:48;;;;;;;0.50;0.50;;;15.00;99.90;;;;;;4244186;33;20049;-77
2022/09/10 01:01:14;;;;;;;0.55;0.55;;;15.00;99.90;;;;;;4256620;33;20427;-77
2022/09/10 01:03:41;;;;;;;0.35;0.35;;;15.00;99.90;;;;;;4263588;33;20165;-77
2022/09/10 01:06:07;;;;;;;0.32;0.32;;;15.00;99.90;;;;;;4264241;33;20080;-77
2022/09/10 01:08:32;;;;;;;0.30;0.30;;;15.10;99.90;;;;;;4263138;33;20569;-77
2022/09/10 01:11:26;;;;;;;5.62;0.50;;;15.10;99.90;;;;;;4262550;33;20470;-77
2022/09/10 01:14:31;;;;;;;0.30;0.30;;;15.10;99.90;;;;;;4255084;33;20109;-77
2022/09/10 01:17:17;;;;;;;0.60;0.43;;;15.10;99.90;;;;;;4242266;33;20088;-77
2022/09/10 01:20:07;;;;;;;0.40;0.40;;;15.20;99.90;;;;;;4261609;33;20136;-77
2022/09/10 01:22:53;;;;;;;0.57;0.57;;;15.20;99.90;;;;;;4254487;33;20077;-77
2022/09/10 01:25:49;;;;;;;7.20;0.73;;;15.00;99.90;;;;;;4264877;33;20086;-77
2022/09/10 01:28:24;;;;;;;0.40;0.40;;;14.80;99.90;;;;;;4241595;33;20147;-77
2022/09/10 01:30:56;;;;;;;0.37;0.37;;;14.80;99.90;;;;;;4251545;33;20073;-77
2022/09/10 01:33:36;;;;;;;14.15;1.87;;;14.70;99.90;;;;;;4267024;33;20069;-77
2022/09/10 01:36:11;;;;;;;0.40;0.40;;;14.60;99.90;;;;;;4264052;33;20081;-77
2022/09/10 01:38:38;;;;;;;0.52;0.52;;;14.60;99.90;;;;;;4265439;33;20589;-77
2022/09/10 01:41:04;;;;;;;0.28;0.28;;;14.60;99.90;;;;;;4265251;33;20088;-77
2022/09/10 01:43:30;;;;;;;0.30;0.30;;;14.70;99.90;;;;;;4266089;33;20073;-77
2022/09/10 01:46:24;;;;;;;1.95;0.40;;;14.80;99.90;;;;;;4265187;33;20550;-77
2022/09/10 01:49:20;;;;;;;0.40;0.40;;;14.80;99.90;;;;;;4263593;33;20096;-77
2022/09/10 01:52:24;;;;;;;1.40;1.00;;;14.60;99.90;;;;;;4255020;33;20085;-77
2022/09/10 01:54:59;;;;;;;0.40;0.40;;;14.60;99.90;;;;;;4256487;33;20080;-77
2022/09/10 01:58:04;;;;;;;0.73;0.62;;;14.60;99.90;;;;;;4260757;33;20174;-78
2022/09/10 02:00:33;;;;;;;0.40;0.40;;;14.60;99.90;;;;;;4238437;33;20530;-78
2022/09/10 02:03:10;;;;;;;0.35;0.35;;;14.70;99.90;;;;;;4265203;33;20523;-78
2022/09/10 02:05:37;;;;;;;0.30;0.30;;;14.80;99.90;;;;;;4265536;33;20085;-77
2022/09/10 02:08:09;;;;;;;0.30;0.30;;;14.90;99.90;;;;;;4263927;33;20562;-76
2022/09/10 02:10:49;;;;;;;0.30;0.30;;;15.00;99.90;;;;;;4264928;33;20085;-76
2022/09/10 02:13:14;;;;;;;0.30;0.30;;;15.00;99.90;;;;;;4264065;33;20080;-76
2022/09/10 02:15:40;;;;;;;0.40;0.40;;;15.10;99.90;;;;;;4266534;33;20585;-76
2022/09/10 02:18:05;;;;;;;3.30;0.60;;;15.10;99.90;;;;;;4262794;33;20061;-76
2022/09/10 02:20:31;;;;;;;0.73;0.73;;;15.00;99.90;;;;;;4263001;33;20200;-76
2022/09/10 02:22:58;;;;;;;0.88;0.85;;;15.00;99.90;;;;;;4264232;33;20088;-76
2022/09/10 02:25:26;;;;;;;0.40;0.40;;;15.10;99.90;;;;;;4262989;33;20073;-76
2022/09/10 02:27:53;;;;;;;0.43;0.43;;;15.00;99.90;;;;;;4257063;33;20358;-77
2022/09/10 02:30:19;;;;;;;1.42;0.52;;;15.00;99.90;;;;;;4245114;33;20138;-77
2022/09/10 02:32:44;;;;;;;0.47;0.47;;;15.00;99.90;;;;;;4264195;33;20085;-77
2022/09/10 02:35:10;;;;;;;0.40;0.40;;;15.00;99.90;;;;;;4265614;33;20102;-77
2022/09/10 02:37:36;;;;;;;1.90;0.65;;;15.00;99.90;;;;;;4268321;33;20076;-77
2022/09/10 02:40:02;;;;;;;0.57;0.57;;;14.90;99.90;;;;;;4265610;33;20510;-77
2022/09/10 02:42:27;;;;;;;6.12;0.50;;;15.00;99.90;;;;;;4265381;33;20442;-77
2022/09/10 02:44:53;;;;;;;3.03;1.35;;;15.00;99.90;;;;;;4265451;33;20171;-77
2022/09/10 02:47:18;;;;;;;1.35;1.05;;;14.90;99.90;;;;;;4264071;33;20428;-77
2022/09/10 02:49:44;;;;;;;17.65;1.37;;;14.70;99.90;;;;;;4265610;33;20473;-77
2022/09/10 02:52:11;;;;;;;0.50;0.50;;;14.50;99.90;;;;;;4263631;33;20097;-77
2022/09/10 02:54:36;;;;;;;0.50;0.50;;;14.40;99.90;;;;;;4263657;33;20207;-77
2022/09/10 02:57:02;;;;;;;1.40;0.88;;;14.50;99.90;;;;;;4263440;33;20128;-77
2022/09/10 02:59:28;;;;;;;2.92;0.93;;;14.60;99.90;;;;;;4237881;33;20099;-77
2022/09/10 03:01:53;;;;;;;0.50;0.50;;;14.60;99.90;;;;;;4261156;33;20112;-77
2022/09/10 03:04:19;;;;;;;0.40;0.40;;;14.50;99.90;;;;;;4265475;33;20073;-77
2022/09/10 03:06:47;;;;;;;0.73;0.60;;;14.50;99.90;;;;;;4264166;33;20081;-77
2022/09/10 03:09:13;;;;;;;0.35;0.35;;;14.60;99.90;;;;;;4264477;33;20348;-77
2022/09/10 03:11:39;;;;;;;0.82;0.70;;;14.60;99.90;;;;;;4265427;33;20088;-77
2022/09/10 03:14:05;;;;;;;0.47;0.47;;;14.60;99.90;;;;;;4266567;33;20571;-77
2022/09/10 03:16:31;;;;;;;0.50;0.50;;;14.50;99.90;;;;;;4265085;33;20538;-77
2022/09/10 03:18:56;;;;;;;0.30;0.30;;;14.50;99.90;;;;;;4265186;33;20061;-77
2022/09/10 03:21:23;;;;;;;0.37;0.37;;;14.40;99.90;;;;;;4264337;33;20085;-77
2022/09/10 03:23:51;;;;;;;0.65;0.65;;;14.30;99.90;;;;;;4263829;33;20436;-77
2022/09/10 03:26:18;;;;;;;0.70;0.70;;;14.10;99.90;;;;;;4264446;33;20174;-77
2022/09/10 03:28:45;;;;;;;0.30;0.30;;;14.10;99.90;;;;;;4249140;33;20057;-77
2022/09/10 03:31:12;;;;;;;3.78;0.80;;;14.10;99.90;;;;;;4254442;33;20065;-77
2022/09/10 03:33:39;;;;;;;2.05;0.80;;;14.20;99.90;;;;;;4263287;33;20526;-77
2022/09/10 03:36:05;;;;;;;0.40;0.40;;;14.20;99.90;;;;;;4263904;33;20085;-77
2022/09/10 03:38:31;;;;;;;0.40;0.40;;;14.30;99.90;;;;;;4263750;33;20064;-77
2022/09/10 03:40:57;;;;;;;1.83;1.25;;;14.30;99.90;;;;;;4265555;33;20489;-77
2022/09/10 03:43:23;;;;;;;0.40;0.40;;;14.30;99.90;;;;;;4265127;33;20065;-77
2022/09/10 03:45:50;;;;;;;0.30;0.30;;;14.30;99.90;;;;;;4263566;33;20086;-77
2022/09/10 03:48:17;;;;;;;0.32;0.32;;;14.20;99.90;;;;;;4262959;33;20814;-77
2022/09/10 03:50:43;;;;;;;0.40;0.40;;;14.20;99.90;;;;;;4263159;33;20540;-77
2022/09/10 03:53:10;;;;;;;0.40;0.40;;;14.30;99.90;;;;;;4262203;33;20470;-77
2022/09/10 03:55:36;;;;;;;0.52;0.47;;;14.40;99.90;;;;;;4262314;33;20097;-77
2022/09/10 03:58:02;;;;;;;0.47;0.47;;;14.40;99.90;;;;;;4251759;33;20064;-76
2022/09/10 04:00:27;;;;;;;0.43;0.43;;;14.40;99.90;;;;;;4246026;33;20526;-77
2022/09/10 04:02:53;;;;;;;0.65;0.65;;;14.40;99.90;;;;;;4263109;33;20439;-77
2022/09/10 04:05:19;;;;;;;1.45;0.93;;;14.20;99.90;;;;;;4263829;33;20088;-77
2022/09/10 04:07:45;;;;;;;0.30;0.30;;;14.00;99.90;;;;;;4263260;33;20882;-77
2022/09/10 04:10:12;;;;;;;0.50;0.50;;;14.10;99.90;;;;;;4262674;33;20069;-77
2022/09/10 04:12:38;;;;;;;0.32;0.32;;;14.00;99.90;;;;;;4262306;33;20522;-77
2022/09/10 04:15:04;;;;;;;0.35;0.35;;;14.10;99.90;;;;;;4264187;33;20097;-77
2022/09/10 04:17:30;;;;;;;5.05;0.93;;;14.10;99.90;;;;;;4261405;33;20077;-77
2022/09/10 04:19:55;;;;;;;0.50;0.50;;;14.20;99.90;;;;;;4262047;33;20085;-77
2022/09/10 04:22:21;;;;;;;0.30;0.30;;;14.20;99.90;;;;;;4262259;33;20087;-77
2022/09/10 04:24:47;;;;;;;0.50;0.50;;;14.30;99.90;;;;;;4262074;33;20101;-77
2022/09/10 04:27:12;;;;;;;1.08;0.55;;;14.20;99.90;;;;;;4261818;33;20086;-77
2022/09/10 04:29:38;;;;;;;0.40;0.40;;;14.20;99.90;;;;;;4236478;33;20456;-77
2022/09/10 04:32:04;;;;;;;5.53;0.50;;;14.30;99.90;;;;;;4261564;33;20096;-77
2022/09/10 04:34:29;;;;;;;0.52;0.52;;;14.30;99.90;;;;;;4262956;33;20148;-76
2022/09/10 04:36:54;;;;;;;0.68;0.68;;;14.30;99.90;;;;;;4264345;33;20065;-77
2022/09/10 04:39:20;;;;;;;0.40;0.40;;;14.30;99.90;;;;;;4263055;33;20105;-78
2022/09/10 04:41:45;;;;;;;0.30;0.30;;;14.30;99.90;;;;;;4263264;33;20088;-77
2022/09/10 04:44:12;;;;;;;0.47;0.47;;;14.20;99.90;;;;;;4264333;33;20061;-78
2022/09/10 04:46:37;;;;;;;0.43;0.43;;;14.20;99.90;;;;;;4262444;33;20109;-78
2022/09/10 04:49:03;;;;;;;0.60;0.60;;;14.10;99.90;;;;;;4264698;33;20124;-78
2022/09/10 04:51:29;;;;;;;0.43;0.43;;;14.10;99.90;;;;;;4261708;33;20126;-77
2022/09/10 04:53:54;;;;;;;0.40;0.40;;;14.10;99.90;;;;;;4264573;33;20120;-76
2022/09/10 04:56:20;;;;;;;0.70;0.70;;;14.10;99.90;;;;;;4262698;33;20084;-77
2022/09/10 04:58:46;;;;;;;0.40;0.40;;;14.10;99.90;;;;;;4247994;33;20121;-78
2022/09/10 05:01:11;;;;;;;0.68;0.68;;;14.10;99.90;;;;;;4255241;33;20232;-78
2022/09/10 05:03:37;;;;;;;0.32;0.32;;;14.00;99.90;;;;;;4263490;33;20074;-76
2022/09/10 05:06:03;;;;;;;0.30;0.30;;;14.00;99.90;;;;;;4262662;33;20172;-77
2022/09/10 05:08:29;;;;;;;0.45;0.45;;;14.00;99.90;;;;;;4264051;33;20226;-78
2022/09/10 05:10:55;;;;;;;0.30;0.30;;;14.00;99.90;;;;;;4263481;33;20120;-78
2022/09/10 05:13:21;;;;;;;0.52;0.52;;;13.90;99.90;;;;;;4264084;33;20073;-77
2022/09/10 05:15:46;;;;;;;0.30;0.30;;;13.90;99.90;;;;;;4262827;33;20522;-78
2022/09/10 05:18:12;;;;;;;1.42;0.70;;;13.90;99.90;;;;;;4262345;33;20435;-77
2022/09/10 05:20:37;;;;;;;0.30;0.30;;;13.80;99.90;;;;;;4262944;33;20117;-78
2022/09/10 05:23:03;;;;;;;0.45;0.45;;;13.80;99.90;;;;;;4263405;33;20522;-77
2022/09/10 05:25:28;;;;;;;0.50;0.50;;;13.90;99.90;;;;;;4260081;33;20096;-78
2022/09/10 05:27:54;;;;;;;0.50;0.50;;;13.90;99.90;;;;;;4254297;33;20065;-78
2022/09/10 05:30:20;;;;;;;0.30;0.30;;;13.90;99.90;;;;;;4243578;33;20086;-78
2022/09/10 05:32:46;;;;;;;0.37;0.37;;;13.90;99.90;;;;;;4264540;33;20085;-78
2022/09/10 05:35:12;;;;;;;9.18;0.55;;;14.00;99.90;;;;;;4263224;33;20567;-78
2022/09/10 05:37:37;;;;;;;0.70;0.70;;;14.00;99.90;;;;;;4264430;33;20626;-78
2022/09/10 05:40:05;;;;;;;0.32;0.32;;;14.00;99.90;;;;;;4263743;33;20133;-78
2022/09/10 05:42:30;;;;;;;0.30;0.30;;;13.90;99.90;;;;;;4262274;33;20085;-78
2022/09/10 05:44:56;;;;;;;0.50;0.50;;;14.00;99.90;;;;;;4263027;33;20079;-78
2022/09/10 05:47:21;;;;;;;0.40;0.40;;;14.00;99.90;;;;;;4264925;33;20096;-78
2022/09/10 05:49:48;;;;;;;0.50;0.50;;;14.00;99.90;;;;;;4263532;33;20070;-78
2022/09/10 05:52:14;;;;;;;0.30;0.30;;;14.10;99.90;;;;;;4262943;33;20155;-78
2022/09/10 05:54:40;;;;;;;0.40;0.40;;;14.10;99.90;;;;;;4262487;33;20093;-78
2022/09/10 05:57:05;;;;;;;1.27;0.90;;;14.20;99.90;;;;;;4262090;33;20499;-78
2022/09/10 05:59:31;;;;;;;0.47;0.47;;;14.30;99.90;;;;;;4240011;33;20540;-78
2022/09/10 06:01:56;;;;;;;0.40;0.40;;;14.30;99.90;;;;;;4263322;33;20092;-78
2022/09/10 06:04:23;;;;;;;1.00;0.50;;;14.40;99.90;;;;;;4264154;33;20069;-76
2022/09/10 06:06:48;;;;;;;0.30;0.30;;;14.50;99.90;;;;;;4261110;33;20080;-76
2022/09/10 06:09:14;;;;;;;0.30;0.30;;;14.60;99.90;;;;;;4267280;33;20061;-76
2022/09/10 06:11:39;;;;;;;0.30;0.30;;;14.70;99.90;;;;;;4266804;33;20093;-77
2022/09/10 06:14:05;;;;;;;0.77;0.77;;;14.70;99.90;;;;;;4265469;33;20534;-77
2022/09/10 06:16:32;;;;;;;0.77;0.55;;;14.80;99.90;;;;;;4265678;33;20415;-77
2022/09/10 06:18:58;;;;;;;0.40;0.40;;;14.90;99.90;;;;;;4266028;33;20073;-77
2022/09/10 06:21:23;;;;;;;0.60;0.60;;;15.00;99.90;;;;;;4265843;33;20126;-78
2022/09/10 06:23:53;;;;;;;0.40;0.40;;;15.00;99.90;;;;;;4265176;33;20073;-78
2022/09/10 06:26:19;;;;;;;0.40;0.40;;;15.10;99.90;;;;;;4265176;33;20068;-78
2022/09/10 06:28:45;;;;;;;0.30;0.30;;;15.10;99.90;;;;;;4248819;33;20579;-78
2022/09/10 06:31:15;;;;;;;0.30;0.30;;;15.10;99.90;;;;;;4255766;33;20061;-78
2022/09/10 06:33:42;;;;;;;0.73;0.50;;;15.10;99.90;;;;;;4265671;33;20069;-78
2022/09/10 06:36:08;;;;;;;0.47;0.47;;;15.10;99.90;;;;;;4263464;33;20188;-78
2022/09/10 06:38:34;;;;;;;0.40;0.40;;;15.20;99.90;;;;;;4264526;33;20057;-77
2022/09/10 06:41:03;;;;;;;0.40;0.40;;;15.30;99.90;;;;;;4266498;33;20060;-78
2022/09/10 06:43:32;;;;;;;0.32;0.32;;;15.30;99.90;;;;;;4265614;33;20391;-78
2022/09/10 06:45:58;;;;;;;0.30;0.30;;;15.30;99.90;;;;;;4262828;33;20069;-78
2022/09/10 06:48:26;;;;;;;6.65;1.58;;;15.40;99.90;;;;;;4265004;33;20130;-77
2022/09/10 06:50:55;;;;;;;0.30;0.30;;;15.60;99.90;;;;;;4265739;33;21783;-78
2022/09/10 06:53:22;;;;;;;1.10;0.85;;;15.70;99.90;;;;;;4266257;33;20057;-78
2022/09/10 06:55:49;;;;;;;0.62;0.62;;;15.70;99.90;;;;;;4264692;33;20101;-77
2022/09/10 06:58:17;;;;;;;0.50;0.50;;;15.80;99.90;;;;;;4258141;33;20470;-78
2022/09/10 07:00:43;;;;;;;0.52;0.52;;;15.90;99.90;;;;;;4252444;33;20061;-78
2022/09/10 07:03:09;;;;;;;0.40;0.40;;;15.90;99.90;;;;;;4266687;33;20062;-78
2022/09/10 07:05:35;;;;;;;0.70;0.70;;;15.90;99.90;;;;;;4266669;33;20085;-78
2022/09/10 07:08:00;;;;;;;0.50;0.50;;;16.00;99.90;;;;;;4266146;33;20078;-78
2022/09/10 07:10:27;;;;;;;0.30;0.30;;;16.00;99.90;;;;;;4266333;33;20072;-77
2022/09/10 07:12:52;;;;;;;0.40;0.40;;;16.10;99.90;;;;;;4266879;33;20081;-78
2022/09/10 07:15:18;;;;;;;0.40;0.40;;;16.10;99.90;;;;;;4266012;33;20404;-78
2022/09/10 07:17:44;;;;;;;0.40;0.40;;;16.20;99.90;;;;;;4265629;33;20081;-78
2022/09/10 07:20:09;;;;;;;0.45;0.45;;;16.30;99.90;;;;;;4265660;33;20069;-78
2022/09/10 07:22:36;;;;;;;0.62;0.60;;;16.40;99.90;;;;;;4266755;33;20081;-78
2022/09/10 07:25:02;;;;;;;0.50;0.50;;;16.40;99.90;;;;;;4264623;33;20089;-78
2022/09/10 07:27:27;;;;;;;0.52;0.52;;;16.50;99.90;;;;;;4260707;33;20092;-78
2022/09/10 07:29:53;;;;;;;0.30;0.30;;;16.50;99.90;;;;;;4243199;33;20064;-78
2022/09/10 07:32:18;;;;;;;0.57;0.55;;;16.60;99.90;;;;;;4265313;33;20282;-78
2022/09/10 07:34:46;;;;;;;0.45;0.45;;;16.70;99.90;;;;;;4265137;33;20069;-78
2022/09/10 07:37:14;;;;;;;0.32;0.32;;;16.70;99.90;;;;;;4265757;33;20081;-78
2022/09/10 07:39:40;;;;;;;0.40;0.40;;;16.80;99.90;;;;;;4267069;33;20545;-77
2022/09/10 07:42:05;;;;;;;0.43;0.43;;;16.90;99.90;;;;;;4266589;33;20077;-78
2022/09/10 07:44:31;;;;;;;0.47;0.47;;;17.00;99.90;;;;;;4267460;33;20164;-78
2022/09/10 07:46:56;;;;;;;0.40;0.40;;;17.00;99.90;;;;;;4266138;33;20431;-78
2022/09/10 07:49:22;;;;;;;0.45;0.45;;;17.00;99.90;;;;;;4264494;33;20632;-77
2022/09/10 07:51:47;;;;;;;0.40;0.40;;;17.10;99.90;;;;;;4264547;33;20081;-77
2022/09/10 07:54:16;;;;;;;0.30;0.30;;;17.20;99.90;;;;;;4264180;33;20129;-78
2022/09/10 07:56:41;;;;;;;0.40;0.40;;;17.20;99.90;;;;;;4263439;33;20133;-78
2022/09/10 07:59:06;;;;;;;0.30;0.30;;;17.20;99.90;;;;;;4243845;33;20604;-78
2022/09/10 08:01:33;;;;;;;0.47;0.47;;;17.30;99.90;;;;;;4260711;33;20061;-77
2022/09/10 08:03:58;;;;;;;0.30;0.30;;;17.40;99.90;;;;;;4263739;33;20101;-77
2022/09/10 08:06:24;;;;;;;0.30;0.30;;;17.40;99.90;;;;;;4264286;33;20076;-77
2022/09/10 08:08:49;;;;;;;0.45;0.45;;;17.50;99.90;;;;;;4265416;33;20096;-77
2022/09/10 08:11:17;;;;;;;0.35;0.35;;;17.50;99.90;;;;;;4265575;33;20518;-77
2022/09/10 08:13:44;;;;;;;0.30;0.30;;;17.60;99.90;;;;;;4266625;33;20069;-77
2022/09/10 08:16:13;;;;;;;0.20;0.20;;;17.80;99.90;;;;;;4268499;33;20096;-77
2022/09/10 08:18:39;;;;;;;0.30;0.30;;;17.90;99.90;;;;;;4267771;33;20529;-77
2022/09/10 08:21:07;;;;;;;0.30;0.30;;;18.00;99.90;;;;;;4266779;33;20069;-77
2022/09/10 08:23:33;;;;;;;0.30;0.30;;;18.20;99.90;;;;;;4264530;33;20085;-77
2022/09/10 08:26:00;;;;;;;0.40;0.40;;;18.30;99.90;;;;;;4265805;33;20085;-77
2022/09/10 08:28:26;;;;;;;2.35;0.98;;;18.40;99.90;;;;;;4252597;33;20116;-77
2022/09/10 08:30:57;;;;;;;0.30;0.30;;;18.40;99.90;;;;;;4251553;33;20081;-78
2022/09/10 08:33:24;;;;;;;0.55;0.50;;;18.50;99.90;;;;;;4263097;33;119833;-78
2022/09/10 08:35:55;;;;;;;0.40;0.40;;;18.50;99.90;;;;;;4265891;33;20076;-78
2022/09/10 08:38:28;;;;;;;0.88;0.45;;;18.50;99.90;;;;;;4265252;33;20097;-77
2022/09/10 08:40:56;;;;;;;0.40;0.40;;;18.60;99.90;;;;;;4265198;33;20089;-77
2022/09/10 08:43:30;;;;;;;0.32;0.32;;;18.70;99.90;;;;;;4251926;33;20162;-77
2022/09/10 08:45:57;;;;;;;0.62;0.60;;;18.80;99.90;;;;;;4264263;33;20092;-77
2022/09/10 08:48:26;;;;;;;0.40;0.40;;;18.90;99.90;;;;;;4264367;33;20061;-77
2022/09/10 08:50:58;;;;;;;0.37;0.37;;;18.90;99.90;;;;;;4264462;33;20577;-78
2022/09/10 08:53:30;;;;;;;0.30;0.30;;;18.90;99.90;;;;;;4263194;33;20085;-77
2022/09/10 08:56:02;;;;;;;0.68;0.68;;;18.90;99.90;;;;;;4264052;33;20073;-77
2022/09/10 08:58:55;;;;;;;0.30;0.30;;;19.00;99.90;;;;;;4248423;33;20093;-78
2022/09/10 09:01:34;;;;;;;0.40;0.40;;;19.00;99.90;;;;;;4244989;33;20097;-78
2022/09/10 09:04:08;;;;;;;3.53;0.37;;;19.20;99.90;;;;;;4263095;33;20144;-77
2022/09/10 09:06:42;;;;;;;0.30;0.30;;;19.30;99.90;;;;;;4265287;33;20108;-78
2022/09/10 09:09:10;;;;;;;0.30;0.30;;;19.40;99.90;;;;;;4262923;33;20115;-78
2022/09/10 09:11:42;;;;;;;0.30;0.30;;;19.40;99.90;;;;;;4263549;33;20542;-77
2022/09/10 09:14:34;;;;;;;4.05;1.27;;;19.50;99.90;;;;;;4264617;33;20450;-77
2022/09/10 09:17:16;;;;;;;0.35;0.35;;;19.40;99.90;;;;;;4262891;33;20093;-78
2022/09/10 09:20:04;;;;;;;0.30;0.30;;;19.60;99.90;;;;;;4265022;33;20088;-78
2022/09/10 09:22:59;;;;;;;0.30;0.30;;;19.60;99.90;;;;;;4254535;33;20530;-78
2022/09/10 09:25:32;;;;;;;0.30;0.30;;;19.80;99.90;;;;;;4251907;33;20093;-78
2022/09/10 09:27:58;;;;;;;0.40;0.40;;;19.80;99.90;;;;;;4255580;33;20085;-78
2022/09/10 09:30:34;;;;;;;0.30;0.30;;;19.60;99.90;;;;;;4247626;33;20084;-77
2022/09/10 09:33:11;;;;;;;0.32;0.32;;;19.40;99.90;;;;;;4264411;33;20518;-77
2022/09/10 09:35:47;;;;;;;0.30;0.30;;;19.40;99.90;;;;;;4263765;33;20146;-78
2022/09/10 09:38:27;;;;;;;0.30;0.30;;;19.30;99.90;;;;;;4268233;33;20376;-77
2022/09/10 09:41:07;;;;;;;0.50;0.50;;;19.60;99.90;;;;;;4265703;33;20541;-78
2022/09/10 09:43:42;;;;;;;0.40;0.40;;;19.80;99.90;;;;;;4268618;33;20204;-77
2022/09/10 09:46:14;;;;;;;0.35;0.35;;;20.00;99.90;;;;;;4267375;33;20068;-78
2022/09/10 09:48:40;;;;;;;0.50;0.50;;;20.40;99.90;;;;;;4268168;33;20108;-78
2022/09/10 09:51:10;;;;;;;0.30;0.30;;;20.80;99.90;;;;;;4267581;33;20458;-78
2022/09/10 09:53:36;;;;;;;0.20;0.20;;;20.90;99.90;;;;;;4268161;33;20458;-78
2022/09/10 09:56:10;;;;;;;0.25;0.25;;;21.20;99.90;;;;;;4266669;33;20129;-78
2022/09/10 09:58:38;;;;;;;0.40;0.40;;;21.30;99.90;;;;;;4253200;33;20566;-77
2022/09/10 10:01:12;;;;;;;0.43;0.43;;;21.40;99.90;;;;;;4256599;33;20168;-78
2022/09/10 10:03:47;;;;;;;2.55;0.62;;;21.40;99.90;;;;;;4267326;33;20155;-78
2022/09/10 10:06:13;;;;;;;0.30;0.30;;;21.50;99.90;;;;;;4267639;33;20084;-78
2022/09/10 10:08:43;;;;;;;2.50;0.55;;;21.60;99.90;;;;;;4268679;33;20153;-78
2022/09/10 10:11:12;;;;;;;0.30;0.30;;;21.30;99.90;;;;;;4267797;33;20480;-78
2022/09/10 10:13:42;;;;;;;0.30;0.30;;;21.20;99.90;;;;;;4266269;33;20513;-78
2022/09/10 10:16:32;;;;;;;0.75;0.40;;;21.00;99.90;;;;;;4266110;33;20108;-77
2022/09/10 10:18:58;;;;;;;0.25;0.25;;;21.10;99.90;;;;;;4264248;33;20471;-77
2022/09/10 10:21:32;;;;;;;0.32;0.32;;;20.90;99.90;;;;;;4265658;33;20069;-77
2022/09/10 10:23:59;;;;;;;0.45;0.45;;;21.00;99.90;;;;;;4266712;33;20110;-78
2022/09/10 10:26:30;;;;;;;0.20;0.20;;;20.90;99.90;;;;;;4265227;33;20101;-77
2022/09/10 10:28:59;;;;;;;0.30;0.30;;;20.90;99.90;;;;;;4247544;33;20134;-77
2022/09/10 10:31:43;;;;;;;0.28;0.28;;;20.90;99.90;;;;;;4260437;33;20143;-78
2022/09/10 10:34:13;;;;;;;0.50;0.50;;;21.10;99.90;;;;;;4263503;33;20148;-78
2022/09/10 10:36:51;;;;;;;6.87;0.55;;;21.10;99.90;;;;;;4265235;33;20142;-77
2022/09/10 10:39:23;;;;;;;0.25;0.25;;;21.40;99.90;;;;;;4263992;33;20092;-78
2022/09/10 10:42:12;;;;;;;0.28;0.28;;;21.70;99.90;;;;;;4266243;33;20088;-77
2022/09/10 10:45:00;;;;;;;0.20;0.20;;;21.70;99.90;;;;;;4263517;33;20081;-77
2022/09/10 10:47:40;;;;;;;0.20;0.20;;;21.90;99.90;;;;;;4264253;33;20100;-77
2022/09/10 10:50:46;;;;;;;0.30;0.30;;;22.10;99.90;;;;;;4251828;33;20073;-77
2022/09/10 10:53:21;;;;;;;4.35;1.17;;;22.00;99.90;;;;;;4253271;33;20097;-77
2022/09/10 10:56:10;;;;;;;0.40;0.40;;;22.20;99.90;;;;;;4263158;33;20085;-77
2022/09/10 10:59:03;;;;;;;0.30;0.30;;;22.40;99.90;;;;;;4248315;33;20518;-77
2022/09/10 11:01:35;;;;;;;0.40;0.40;;;22.10;99.90;;;;;;4250418;33;20092;-77
2022/09/10 11:04:15;;;;;;;0.35;0.35;;;21.90;99.90;;;;;;4264550;33;20073;-77
2022/09/10 11:06:46;;;;;;;0.30;0.30;;;22.10;99.90;;;;;;4263593;33;20915;-77
2022/09/10 11:09:23;;;;;;;0.60;0.60;;;22.50;99.90;;;;;;4264032;33;20089;-77
2022/09/10 11:12:00;;;;;;;0.20;0.20;;;23.00;99.90;;;;;;4263870;33;20057;-76
2022/09/10 11:14:37;;;;;;;0.20;0.20;;;23.10;99.90;;;;;;4265038;33;20146;-78
2022/09/10 11:17:15;;;;;;;1.02;0.30;;;23.00;99.90;;;;;;4266496;33;20065;-78
2022/09/10 11:19:50;;;;;;;0.20;0.20;;;22.80;99.90;;;;;;4266440;33;20068;-78
2022/09/10 11:22:20;;;;;;;0.20;0.20;;;22.40;99.90;;;;;;4264757;33;20065;-78
2022/09/10 11:24:54;;;;;;;0.20;0.20;;;22.60;99.90;;;;;;4266225;33;20100;-78
2022/09/10 11:27:28;;;;;;;0.22;0.22;;;23.20;99.90;;;;;;4262589;33;20061;-78
2022/09/10 11:30:12;;;;;;;0.20;0.20;;;23.70;99.90;;;;;;4244272;33;20104;-78
2022/09/10 11:33:01;;;;;;;0.30;0.30;;;24.30;99.90;;;;;;4266403;33;20547;-79
2022/09/10 11:35:43;;;;;;;0.20;0.20;;;24.90;99.90;;;;;;4263676;33;20072;-77
2022/09/10 11:38:29;;;;;;;0.15;0.15;;;25.10;99.90;;;;;;4262344;33;20162;-76
2022/09/10 11:41:21;;;;;;;0.10;0.10;;;25.10;99.90;;;;;;4263961;33;20076;-78
2022/09/10 11:44:15;;;;;;;0.20;0.20;;;24.90;99.90;;;;;;4266118;33;20120;-77
2022/09/10 11:46:55;;;;;;;0.30;0.30;;;24.90;99.90;;;;;;4265415;33;21449;-77
2022/09/10 11:49:26;;;;;;;0.25;0.25;;;24.50;99.90;;;;;;4263629;33;20060;-78
2022/09/10 11:51:52;;;;;;;0.10;0.10;;;24.30;99.90;;;;;;4263913;33;20497;-77
2022/09/10 11:54:25;;;;;;;0.20;0.20;;;23.80;99.90;;;;;;4266661;33;20077;-77
2022/09/10 11:56:59;;;;;;;0.20;0.20;;;23.30;99.90;;;;;;4262657;33;20065;-77
2022/09/10 11:59:53;;;;;;;0.10;0.10;;;22.80;99.90;;;;;;4240302;33;20084;-77
2022/09/10 12:02:40;;;;;;;0.30;0.28;;;22.40;99.90;;;;;;4262619;33;20485;-77
2022/09/10 12:05:19;;;;;;;0.20;0.20;;;22.20;99.90;;;;;;4253489;33;20545;-77
2022/09/10 12:08:13;;;;;;;0.28;0.28;;;22.00;99.90;;;;;;4253500;33;20097;-77
2022/09/10 12:11:07;;;;;;;0.25;0.25;;;21.90;99.90;;;;;;4253706;33;20222;-77
2022/09/10 12:13:38;;;;;;;0.20;0.20;;;21.70;99.90;;;;;;4254300;33;20145;-77
2022/09/10 12:16:17;;;;;;;1.05;0.88;;;21.90;99.90;;;;;;4265048;33;20069;-78
2022/09/10 12:18:46;;;;;;;0.40;0.40;;;22.30;99.90;;;;;;4263683;33;20073;-77
2022/09/10 12:21:27;;;;;;;0.20;0.20;;;22.50;99.90;;;;;;4264330;33;20069;-78
2022/09/10 12:23:53;;;;;;;0.20;0.20;;;23.40;99.90;;;;;;4264009;33;20117;-77
2022/09/10 12:26:21;;;;;;;0.20;0.20;;;23.60;99.90;;;;;;4264821;33;20077;-78
2022/09/10 12:28:50;;;;;;;0.20;0.20;;;23.40;99.90;;;;;;4246301;33;20634;-77
2022/09/10 12:31:18;;;;;;;0.20;0.20;;;22.90;99.90;;;;;;4257539;33;20052;-77
2022/09/10 12:33:46;;;;;;;0.20;0.20;;;22.50;99.90;;;;;;4263783;33;20182;-77
2022/09/10 12:36:33;;;;;;;0.30;0.30;;;22.40;99.90;;;;;;4264487;33;20125;-77
2022/09/10 12:39:20;;;;;;;0.25;0.25;;;22.20;99.90;;;;;;4252353;33;20123;-77
2022/09/10 12:41:48;;;;;;;0.20;0.20;;;22.20;99.90;;;;;;4251327;33;20069;-77
2022/09/10 12:44:35;;;;;;;2.90;0.57;;;22.10;99.90;;;;;;4263368;33;20088;-77
2022/09/10 12:47:18;;;;;;;0.30;0.30;;;22.00;99.90;;;;;;4255258;33;20546;-78
2022/09/10 12:50:04;;;;;;;0.20;0.20;;;22.20;99.90;;;;;;4265671;33;20068;-77
2022/09/10 12:52:50;;;;;;;0.30;0.30;;;22.40;99.90;;;;;;4266464;33;20108;-78
2022/09/10 12:55:39;;;;;;;0.20;0.20;;;22.90;99.90;;;;;;4263938;33;20134;-78
2022/09/10 12:58:22;;;;;;;3.92;0.70;;;24.40;99.90;;;;;;4244558;33;20065;-77
2022/09/10 13:01:10;;;;;;;0.10;0.10;;;25.80;99.90;;;;;;4253756;33;20077;-79
2022/09/10 13:03:44;;;;;;;0.00;0.00;;;27.00;98.80;;;;;;4264870;33;20120;-78
2022/09/10 13:06:10;;;;;;;0.10;0.10;;;27.70;95.90;;;;;;4265942;33;20069;-77
2022/09/10 13:08:46;;;;;;;0.00;0.00;;;27.80;95.70;;;;;;4268667;33;20174;-78